Consuelo Batey Anita airport

Jump to: basic info | weather | comments

Related pages: nearby airports | nearby navaids | notams | map

Basic information (top)

Codes: MDBA
Location: lon 18.683332, lat -69.383331, elev 150 ft / 46 m msl
Status: small_airport

Weather (top)

Current conditions (rec'd 2014/09/15 12:00Z):

MDBA 151200Z 00000KT 9999 FEW016CB SCT018 26/24 Q1017 CB/SE

Airport forecast for Las Américas International Airport 22nm (41km) SW (rec'd 2014/09/22 00:00Z):

TAF MDSD 222200Z 2300/2400 02005KT 9999 FEW016CB SCT018 SCT070 PROB30 2300/2306 7000 -TSRA FEW014CB SCT016 SCT070 
      BECMG 2309/2311 00000KT 
      TEMPO 2318/2400 6000 -TSRA FEW014CB BKN016 BKN070

Latest comments (top)

No comments yet for Consuelo Batey Anita airport

More... (top)

See also NOTAMs and nearby airports and navaids, or visit the Consuelo Batey Anita airport page at the main OurAirports website..